sensor_id;sensor_type;location;lat;lon;timestamp;P1;durP1;ratioP1;P2;durP2;ratioP2
14094;SDS011;18096;48.142;16.290;2023-04-25T00:02:09;3.40;;;1.50;;
14094;SDS011;18096;48.142;16.290;2023-04-25T00:04:35;1.50;;;1.40;;
14094;SDS011;18096;48.142;16.290;2023-04-25T00:07:02;1.50;;;1.30;;
14094;SDS011;18096;48.142;16.290;2023-04-25T00:09:28;1.35;;;1.35;;
14094;SDS011;18096;48.142;16.290;2023-04-25T00:11:54;1.50;;;1.40;;
14094;SDS011;18096;48.142;16.290;2023-04-25T00:14:20;2.70;;;1.08;;
14094;SDS011;18096;48.142;16.290;2023-04-25T00:16:46;2.10;;;1.40;;
14094;SDS011;18096;48.142;16.290;2023-04-25T00:19:13;3.00;;;2.08;;
14094;SDS011;18096;48.142;16.290;2023-04-25T00:21:38;2.70;;;1.65;;
14094;SDS011;18096;48.142;16.290;2023-04-25T00:24:06;2.13;;;1.60;;
14094;SDS011;18096;48.142;16.290;2023-04-25T00:26:33;1.70;;;1.40;;
14094;SDS011;18096;48.142;16.290;2023-04-25T00:29:00;3.28;;;1.65;;
14094;SDS011;18096;48.142;16.290;2023-04-25T00:31:25;1.80;;;1.40;;
14094;SDS011;18096;48.142;16.290;2023-04-25T00:33:51;1.93;;;1.60;;
14094;SDS011;18096;48.142;16.290;2023-04-25T00:36:18;1.70;;;1.30;;
14094;SDS011;18096;48.142;16.290;2023-04-25T00:38:43;1.50;;;1.40;;
14094;SDS011;18096;48.142;16.290;2023-04-25T00:41:09;1.30;;;1.20;;
14094;SDS011;18096;48.142;16.290;2023-04-25T00:43:36;1.65;;;1.30;;
14094;SDS011;18096;48.142;16.290;2023-04-25T00:46:02;1.40;;;1.30;;
14094;SDS011;18096;48.142;16.290;2023-04-25T00:48:28;3.13;;;1.52;;
14094;SDS011;18096;48.142;16.290;2023-04-25T00:50:54;1.50;;;1.40;;
14094;SDS011;18096;48.142;16.290;2023-04-25T00:53:22;3.00;;;1.60;;
14094;SDS011;18096;48.142;16.290;2023-04-25T00:55:49;1.70;;;1.60;;
14094;SDS011;18096;48.142;16.290;2023-04-25T00:58:18;1.30;;;1.20;;
14094;SDS011;18096;48.142;16.290;2023-04-25T01:00:45;4.80;;;1.73;;
14094;SDS011;18096;48.142;16.290;2023-04-25T01:03:16;1.40;;;1.40;;
14094;SDS011;18096;48.142;16.290;2023-04-25T01:05:45;2.20;;;1.50;;
14094;SDS011;18096;48.142;16.290;2023-04-25T01:08:11;1.42;;;1.38;;
14094;SDS011;18096;48.142;16.290;2023-04-25T01:10:37;1.35;;;1.25;;
14094;SDS011;18096;48.142;16.290;2023-04-25T01:13:03;1.40;;;1.30;;
14094;SDS011;18096;48.142;16.290;2023-04-25T01:15:29;2.37;;;1.50;;
14094;SDS011;18096;48.142;16.290;2023-04-25T01:17:55;1.97;;;1.30;;
14094;SDS011;18096;48.142;16.290;2023-04-25T01:20:22;1.90;;;1.27;;
14094;SDS011;18096;48.142;16.290;2023-04-25T01:22:48;2.70;;;1.60;;
14094;SDS011;18096;48.142;16.290;2023-04-25T01:25:15;1.40;;;1.30;;
14094;SDS011;18096;48.142;16.290;2023-04-25T01:27:41;2.10;;;1.40;;
14094;SDS011;18096;48.142;16.290;2023-04-25T01:30:07;2.30;;;1.35;;
14094;SDS011;18096;48.142;16.290;2023-04-25T01:32:34;1.40;;;1.30;;
14094;SDS011;18096;48.142;16.290;2023-04-25T01:35:06;1.10;;;1.10;;
14094;SDS011;18096;48.142;16.290;2023-04-25T01:37:40;1.65;;;1.20;;
14094;SDS011;18096;48.142;16.290;2023-04-25T01:40:08;4.10;;;1.30;;
14094;SDS011;18096;48.142;16.290;2023-04-25T01:42:35;1.80;;;1.50;;
14094;SDS011;18096;48.142;16.290;2023-04-25T01:45:02;1.60;;;1.40;;
14094;SDS011;18096;48.142;16.290;2023-04-25T01:47:28;1.63;;;1.52;;
14094;SDS011;18096;48.142;16.290;2023-04-25T01:49:54;2.10;;;1.30;;
14094;SDS011;18096;48.142;16.290;2023-04-25T01:52:20;2.80;;;1.30;;
14094;SDS011;18096;48.142;16.290;2023-04-25T01:54:46;1.63;;;1.50;;
14094;SDS011;18096;48.142;16.290;2023-04-25T01:57:12;2.50;;;1.77;;
14094;SDS011;18096;48.142;16.290;2023-04-25T01:59:38;1.10;;;1.10;;
14094;SDS011;18096;48.142;16.290;2023-04-25T02:02:05;1.90;;;1.70;;
14094;SDS011;18096;48.142;16.290;2023-04-25T02:04:31;1.70;;;1.60;;
14094;SDS011;18096;48.142;16.290;2023-04-25T02:06:57;1.45;;;1.13;;
14094;SDS011;18096;48.142;16.290;2023-04-25T02:09:23;1.90;;;1.60;;
14094;SDS011;18096;48.142;16.290;2023-04-25T02:11:49;1.80;;;1.40;;
14094;SDS011;18096;48.142;16.290;2023-04-25T02:14:14;3.30;;;2.07;;
14094;SDS011;18096;48.142;16.290;2023-04-25T02:16:40;6.80;;;1.70;;
14094;SDS011;18096;48.142;16.290;2023-04-25T02:19:05;1.73;;;1.63;;
14094;SDS011;18096;48.142;16.290;2023-04-25T02:21:31;1.63;;;1.52;;
14094;SDS011;18096;48.142;16.290;2023-04-25T02:24:00;1.95;;;1.80;;
14094;SDS011;18096;48.142;16.290;2023-04-25T02:26:26;2.60;;;1.80;;
14094;SDS011;18096;48.142;16.290;2023-04-25T02:28:52;1.67;;;1.57;;
14094;SDS011;18096;48.142;16.290;2023-04-25T02:31:17;3.58;;;1.65;;
14094;SDS011;18096;48.142;16.290;2023-04-25T02:33:43;3.30;;;2.10;;
14094;SDS011;18096;48.142;16.290;2023-04-25T02:36:09;1.50;;;1.40;;
14094;SDS011;18096;48.142;16.290;2023-04-25T02:38:35;1.30;;;1.30;;
14094;SDS011;18096;48.142;16.290;2023-04-25T02:41:00;1.60;;;1.50;;
14094;SDS011;18096;48.142;16.290;2023-04-25T02:43:26;8.10;;;1.60;;
14094;SDS011;18096;48.142;16.290;2023-04-25T02:45:52;1.73;;;1.47;;
14094;SDS011;18096;48.142;16.290;2023-04-25T02:48:17;3.03;;;1.70;;
14094;SDS011;18096;48.142;16.290;2023-04-25T02:50:43;1.60;;;1.50;;
14094;SDS011;18096;48.142;16.290;2023-04-25T02:53:10;1.65;;;1.55;;
14094;SDS011;18096;48.142;16.290;2023-04-25T02:55:35;1.50;;;1.30;;
14094;SDS011;18096;48.142;16.290;2023-04-25T02:58:01;1.70;;;1.60;;
14094;SDS011;18096;48.142;16.290;2023-04-25T03:00:27;1.60;;;1.50;;
14094;SDS011;18096;48.142;16.290;2023-04-25T03:02:53;1.20;;;1.20;;
14094;SDS011;18096;48.142;16.290;2023-04-25T03:05:18;1.70;;;1.60;;
14094;SDS011;18096;48.142;16.290;2023-04-25T03:07:44;1.30;;;1.20;;
14094;SDS011;18096;48.142;16.290;2023-04-25T03:10:10;1.50;;;1.40;;
14094;SDS011;18096;48.142;16.290;2023-04-25T03:12:36;1.90;;;1.80;;
14094;SDS011;18096;48.142;16.290;2023-04-25T03:15:02;1.70;;;1.60;;
14094;SDS011;18096;48.142;16.290;2023-04-25T03:17:28;1.70;;;1.60;;
14094;SDS011;18096;48.142;16.290;2023-04-25T03:19:54;1.30;;;1.20;;
14094;SDS011;18096;48.142;16.290;2023-04-25T03:22:20;2.00;;;1.80;;
14094;SDS011;18096;48.142;16.290;2023-04-25T03:24:46;2.58;;;1.40;;
14094;SDS011;18096;48.142;16.290;2023-04-25T03:27:12;2.20;;;1.50;;
14094;SDS011;18096;48.142;16.290;2023-04-25T03:29:38;2.20;;;1.30;;
14094;SDS011;18096;48.142;16.290;2023-04-25T03:32:03;1.43;;;1.33;;
14094;SDS011;18096;48.142;16.290;2023-04-25T03:34:29;1.60;;;1.50;;
14094;SDS011;18096;48.142;16.290;2023-04-25T03:36:55;1.60;;;1.50;;
14094;SDS011;18096;48.142;16.290;2023-04-25T03:39:21;1.95;;;1.70;;
14094;SDS011;18096;48.142;16.290;2023-04-25T03:41:46;1.70;;;1.60;;
14094;SDS011;18096;48.142;16.290;2023-04-25T03:44:12;3.97;;;1.40;;
14094;SDS011;18096;48.142;16.290;2023-04-25T03:46:38;1.10;;;1.10;;
14094;SDS011;18096;48.142;16.290;2023-04-25T03:49:04;1.50;;;1.40;;
14094;SDS011;18096;48.142;16.290;2023-04-25T03:51:30;2.93;;;1.70;;
14094;SDS011;18096;48.142;16.290;2023-04-25T03:53:56;1.50;;;1.40;;
14094;SDS011;18096;48.142;16.290;2023-04-25T03:56:21;1.75;;;1.65;;
14094;SDS011;18096;48.142;16.290;2023-04-25T03:58:47;1.65;;;1.55;;
14094;SDS011;18096;48.142;16.290;2023-04-25T04:01:14;1.80;;;1.50;;
14094;SDS011;18096;48.142;16.290;2023-04-25T04:03:40;3.50;;;1.73;;
14094;SDS011;18096;48.142;16.290;2023-04-25T04:06:05;1.70;;;1.58;;
14094;SDS011;18096;48.142;16.290;2023-04-25T04:08:32;2.80;;;1.80;;
14094;SDS011;18096;48.142;16.290;2023-04-25T04:10:58;4.68;;;1.70;;
14094;SDS011;18096;48.142;16.290;2023-04-25T04:13:27;1.38;;;1.27;;
14094;SDS011;18096;48.142;16.290;2023-04-25T04:15:53;2.00;;;1.60;;
14094;SDS011;18096;48.142;16.290;2023-04-25T04:18:20;1.60;;;1.50;;
14094;SDS011;18096;48.142;16.290;2023-04-25T04:20:46;1.60;;;1.50;;
14094;SDS011;18096;48.142;16.290;2023-04-25T04:23:12;1.80;;;1.70;;
14094;SDS011;18096;48.142;16.290;2023-04-25T04:25:38;1.87;;;1.67;;
14094;SDS011;18096;48.142;16.290;2023-04-25T04:28:05;2.00;;;1.90;;
14094;SDS011;18096;48.142;16.290;2023-04-25T04:30:31;1.80;;;1.60;;
14094;SDS011;18096;48.142;16.290;2023-04-25T04:32:58;2.55;;;1.50;;
14094;SDS011;18096;48.142;16.290;2023-04-25T04:35:25;2.63;;;1.98;;
14094;SDS011;18096;48.142;16.290;2023-04-25T04:37:51;1.85;;;1.75;;
14094;SDS011;18096;48.142;16.290;2023-04-25T04:40:18;2.85;;;2.35;;
14094;SDS011;18096;48.142;16.290;2023-04-25T04:42:44;3.65;;;1.70;;
14094;SDS011;18096;48.142;16.290;2023-04-25T04:45:13;1.80;;;1.70;;
14094;SDS011;18096;48.142;16.290;2023-04-25T04:47:39;1.97;;;1.87;;
14094;SDS011;18096;48.142;16.290;2023-04-25T04:50:06;2.88;;;1.80;;
14094;SDS011;18096;48.142;16.290;2023-04-25T04:52:34;1.92;;;1.40;;
14094;SDS011;18096;48.142;16.290;2023-04-25T04:55:00;2.10;;;1.90;;
14094;SDS011;18096;48.142;16.290;2023-04-25T04:57:27;3.67;;;1.58;;
14094;SDS011;18096;48.142;16.290;2023-04-25T04:59:53;1.70;;;1.60;;
14094;SDS011;18096;48.142;16.290;2023-04-25T05:02:19;1.65;;;1.55;;
14094;SDS011;18096;48.142;16.290;2023-04-25T05:04:44;1.70;;;1.60;;
14094;SDS011;18096;48.142;16.290;2023-04-25T05:07:10;2.50;;;1.67;;
14094;SDS011;18096;48.142;16.290;2023-04-25T05:09:36;2.88;;;1.77;;
14094;SDS011;18096;48.142;16.290;2023-04-25T05:12:02;1.73;;;1.63;;
14094;SDS011;18096;48.142;16.290;2023-04-25T05:14:28;1.65;;;1.55;;
14094;SDS011;18096;48.142;16.290;2023-04-25T05:16:53;1.70;;;1.60;;
14094;SDS011;18096;48.142;16.290;2023-04-25T05:19:19;2.00;;;1.90;;
14094;SDS011;18096;48.142;16.290;2023-04-25T05:21:45;7.73;;;2.03;;
14094;SDS011;18096;48.142;16.290;2023-04-25T05:24:10;1.63;;;1.52;;
14094;SDS011;18096;48.142;16.290;2023-04-25T05:26:37;4.30;;;2.43;;
14094;SDS011;18096;48.142;16.290;2023-04-25T05:29:02;3.90;;;2.13;;
14094;SDS011;18096;48.142;16.290;2023-04-25T05:31:28;3.78;;;2.70;;
14094;SDS011;18096;48.142;16.290;2023-04-25T05:33:54;2.50;;;2.30;;
14094;SDS011;18096;48.142;16.290;2023-04-25T05:36:20;2.63;;;2.30;;
14094;SDS011;18096;48.142;16.290;2023-04-25T05:38:46;2.15;;;1.92;;
14094;SDS011;18096;48.142;16.290;2023-04-25T05:41:11;2.60;;;1.95;;
14094;SDS011;18096;48.142;16.290;2023-04-25T05:43:37;1.70;;;1.60;;
14094;SDS011;18096;48.142;16.290;2023-04-25T05:46:03;2.40;;;2.27;;
14094;SDS011;18096;48.142;16.290;2023-04-25T05:48:29;2.50;;;2.30;;
14094;SDS011;18096;48.142;16.290;2023-04-25T05:50:55;5.82;;;3.03;;
14094;SDS011;18096;48.142;16.290;2023-04-25T05:53:20;6.35;;;3.00;;
14094;SDS011;18096;48.142;16.290;2023-04-25T05:55:47;10.68;;;2.70;;
14094;SDS011;18096;48.142;16.290;2023-04-25T05:58:12;4.90;;;2.60;;
14094;SDS011;18096;48.142;16.290;2023-04-25T06:00:38;3.70;;;2.67;;
14094;SDS011;18096;48.142;16.290;2023-04-25T06:03:06;2.35;;;1.90;;
14094;SDS011;18096;48.142;16.290;2023-04-25T06:05:34;2.10;;;2.00;;
14094;SDS011;18096;48.142;16.290;2023-04-25T06:08:00;2.50;;;1.90;;
14094;SDS011;18096;48.142;16.290;2023-04-25T06:10:26;2.07;;;1.97;;
14094;SDS011;18096;48.142;16.290;2023-04-25T06:12:51;2.10;;;2.00;;
14094;SDS011;18096;48.142;16.290;2023-04-25T06:15:17;5.53;;;2.13;;
14094;SDS011;18096;48.142;16.290;2023-04-25T06:17:43;1.70;;;1.65;;
14094;SDS011;18096;48.142;16.290;2023-04-25T06:20:08;2.03;;;1.90;;
14094;SDS011;18096;48.142;16.290;2023-04-25T06:22:35;2.45;;;1.90;;
14094;SDS011;18096;48.142;16.290;2023-04-25T06:25:00;2.20;;;2.00;;
14094;SDS011;18096;48.142;16.290;2023-04-25T06:27:28;1.50;;;1.40;;
14094;SDS011;18096;48.142;16.290;2023-04-25T06:29:54;1.70;;;1.60;;
14094;SDS011;18096;48.142;16.290;2023-04-25T06:32:20;2.45;;;1.90;;
14094;SDS011;18096;48.142;16.290;2023-04-25T06:34:45;1.87;;;1.70;;
14094;SDS011;18096;48.142;16.290;2023-04-25T06:37:11;1.75;;;1.48;;
14094;SDS011;18096;48.142;16.290;2023-04-25T06:39:37;4.40;;;2.00;;
14094;SDS011;18096;48.142;16.290;2023-04-25T06:42:02;1.70;;;1.60;;
14094;SDS011;18096;48.142;16.290;2023-04-25T06:44:28;4.20;;;1.47;;
14094;SDS011;18096;48.142;16.290;2023-04-25T06:46:54;2.00;;;1.45;;
14094;SDS011;18096;48.142;16.290;2023-04-25T06:49:20;2.20;;;2.10;;
14094;SDS011;18096;48.142;16.290;2023-04-25T06:51:46;1.60;;;1.50;;
14094;SDS011;18096;48.142;16.290;2023-04-25T06:54:11;1.65;;;1.50;;
14094;SDS011;18096;48.142;16.290;2023-04-25T06:56:37;5.17;;;1.67;;
14094;SDS011;18096;48.142;16.290;2023-04-25T06:59:03;2.10;;;2.00;;
14094;SDS011;18096;48.142;16.290;2023-04-25T07:01:28;1.70;;;1.60;;
14094;SDS011;18096;48.142;16.290;2023-04-25T07:03:54;1.83;;;1.73;;
14094;SDS011;18096;48.142;16.290;2023-04-25T07:06:20;1.70;;;1.60;;
14094;SDS011;18096;48.142;16.290;2023-04-25T07:08:46;1.92;;;1.80;;
14094;SDS011;18096;48.142;16.290;2023-04-25T07:11:11;2.10;;;1.40;;
14094;SDS011;18096;48.142;16.290;2023-04-25T07:13:37;1.40;;;1.40;;
14094;SDS011;18096;48.142;16.290;2023-04-25T07:16:03;1.60;;;1.50;;
14094;SDS011;18096;48.142;16.290;2023-04-25T07:18:29;2.60;;;1.80;;
14094;SDS011;18096;48.142;16.290;2023-04-25T07:20:54;2.90;;;1.73;;
14094;SDS011;18096;48.142;16.290;2023-04-25T07:23:20;5.20;;;1.92;;
14094;SDS011;18096;48.142;16.290;2023-04-25T07:25:46;1.80;;;1.50;;
14094;SDS011;18096;48.142;16.290;2023-04-25T07:28:12;2.40;;;1.50;;
14094;SDS011;18096;48.142;16.290;2023-04-25T07:30:37;1.52;;;1.42;;
14094;SDS011;18096;48.142;16.290;2023-04-25T07:33:03;5.95;;;1.30;;
14094;SDS011;18096;48.142;16.290;2023-04-25T07:35:29;1.60;;;1.50;;
14094;SDS011;18096;48.142;16.290;2023-04-25T07:37:55;1.60;;;1.50;;
14094;SDS011;18096;48.142;16.290;2023-04-25T07:40:20;2.20;;;1.50;;
14094;SDS011;18096;48.142;16.290;2023-04-25T07:42:46;1.90;;;1.80;;
14094;SDS011;18096;48.142;16.290;2023-04-25T07:45:12;2.83;;;1.70;;
14094;SDS011;18096;48.142;16.290;2023-04-25T07:47:37;2.40;;;1.60;;
14094;SDS011;18096;48.142;16.290;2023-04-25T07:50:03;2.90;;;1.70;;
14094;SDS011;18096;48.142;16.290;2023-04-25T07:52:29;3.13;;;1.58;;
14094;SDS011;18096;48.142;16.290;2023-04-25T07:54:55;7.90;;;1.70;;
14094;SDS011;18096;48.142;16.290;2023-04-25T07:57:22;1.65;;;1.55;;
14094;SDS011;18096;48.142;16.290;2023-04-25T07:59:49;4.00;;;1.88;;
14094;SDS011;18096;48.142;16.290;2023-04-25T08:02:14;2.13;;;1.93;;
14094;SDS011;18096;48.142;16.290;2023-04-25T08:04:40;2.10;;;1.90;;
14094;SDS011;18096;48.142;16.290;2023-04-25T08:07:06;2.92;;;1.83;;
14094;SDS011;18096;48.142;16.290;2023-04-25T08:09:31;1.60;;;1.50;;
14094;SDS011;18096;48.142;16.290;2023-04-25T08:12:00;2.08;;;1.88;;
14094;SDS011;18096;48.142;16.290;2023-04-25T08:14:26;1.80;;;1.70;;
14094;SDS011;18096;48.142;16.290;2023-04-25T08:16:53;1.80;;;1.70;;
14094;SDS011;18096;48.142;16.290;2023-04-25T08:19:19;2.80;;;1.80;;
14094;SDS011;18096;48.142;16.290;2023-04-25T08:21:45;2.08;;;1.40;;
14094;SDS011;18096;48.142;16.290;2023-04-25T08:24:11;1.67;;;1.57;;
14094;SDS011;18096;48.142;16.290;2023-04-25T08:26:36;2.03;;;1.60;;
14094;SDS011;18096;48.142;16.290;2023-04-25T08:29:03;1.80;;;1.70;;
14094;SDS011;18096;48.142;16.290;2023-04-25T08:31:30;2.40;;;1.60;;
14094;SDS011;18096;48.142;16.290;2023-04-25T08:33:56;4.30;;;1.73;;
14094;SDS011;18096;48.142;16.290;2023-04-25T08:36:21;2.92;;;1.70;;
14094;SDS011;18096;48.142;16.290;2023-04-25T08:38:48;4.68;;;2.10;;
14094;SDS011;18096;48.142;16.290;2023-04-25T08:41:13;1.80;;;1.70;;
14094;SDS011;18096;48.142;16.290;2023-04-25T08:43:40;1.70;;;1.25;;
14094;SDS011;18096;48.142;16.290;2023-04-25T08:46:08;2.90;;;1.50;;
14094;SDS011;18096;48.142;16.290;2023-04-25T08:48:36;1.98;;;1.50;;
14094;SDS011;18096;48.142;16.290;2023-04-25T08:51:02;6.33;;;1.60;;
14094;SDS011;18096;48.142;16.290;2023-04-25T08:53:32;1.60;;;1.50;;
14094;SDS011;18096;48.142;16.290;2023-04-25T08:55:59;2.72;;;1.90;;
14094;SDS011;18096;48.142;16.290;2023-04-25T08:58:29;3.13;;;1.70;;
14094;SDS011;18096;48.142;16.290;2023-04-25T09:00:55;2.00;;;1.90;;
14094;SDS011;18096;48.142;16.290;2023-04-25T09:03:21;1.70;;;1.70;;
14094;SDS011;18096;48.142;16.290;2023-04-25T09:05:47;1.97;;;1.83;;
14094;SDS011;18096;48.142;16.290;2023-04-25T09:08:12;2.35;;;1.65;;
14094;SDS011;18096;48.142;16.290;2023-04-25T09:10:38;3.90;;;2.20;;
14094;SDS011;18096;48.142;16.290;2023-04-25T09:18:33;1.90;;;1.33;;
14094;SDS011;18096;48.142;16.290;2023-04-25T09:21:07;1.70;;;1.60;;
14094;SDS011;18096;48.142;16.290;2023-04-25T09:23:44;1.10;;;1.10;;
14094;SDS011;18096;48.142;16.290;2023-04-25T09:26:16;2.70;;;1.30;;
14094;SDS011;18096;48.142;16.290;2023-04-25T09:28:44;1.10;;;1.10;;
14094;SDS011;18096;48.142;16.290;2023-04-25T09:31:20;2.58;;;1.20;;
14094;SDS011;18096;48.142;16.290;2023-04-25T09:33:49;1.20;;;1.20;;
14094;SDS011;18096;48.142;16.290;2023-04-25T09:36:14;1.23;;;1.13;;
14094;SDS011;18096;48.142;16.290;2023-04-25T09:38:44;4.80;;;1.50;;
14094;SDS011;18096;48.142;16.290;2023-04-25T09:41:11;1.30;;;1.20;;
14094;SDS011;18096;48.142;16.290;2023-04-25T09:43:37;1.50;;;1.40;;
14094;SDS011;18096;48.142;16.290;2023-04-25T09:46:07;1.40;;;1.30;;
14094;SDS011;18096;48.142;16.290;2023-04-25T09:48:36;2.35;;;1.98;;
14094;SDS011;18096;48.142;16.290;2023-04-25T09:51:08;2.40;;;1.83;;
14094;SDS011;18096;48.142;16.290;2023-04-25T09:53:41;4.63;;;1.45;;
14094;SDS011;18096;48.142;16.290;2023-04-25T09:56:10;2.70;;;1.50;;
14094;SDS011;18096;48.142;16.290;2023-04-25T09:58:37;1.58;;;1.40;;
14094;SDS011;18096;48.142;16.290;2023-04-25T10:01:05;1.10;;;1.00;;
14094;SDS011;18096;48.142;16.290;2023-04-25T10:03:36;2.53;;;1.30;;
14094;SDS011;18096;48.142;16.290;2023-04-25T10:06:08;1.33;;;1.23;;
14094;SDS011;18096;48.142;16.290;2023-04-25T10:08:37;2.80;;;1.50;;
14094;SDS011;18096;48.142;16.290;2023-04-25T10:11:04;1.30;;;1.20;;
14094;SDS011;18096;48.142;16.290;2023-04-25T10:13:33;2.80;;;1.20;;
14094;SDS011;18096;48.142;16.290;2023-04-25T10:16:00;1.00;;;1.00;;
14094;SDS011;18096;48.142;16.290;2023-04-25T10:18:28;0.90;;;0.90;;
14094;SDS011;18096;48.142;16.290;2023-04-25T10:20:55;1.37;;;1.27;;
14094;SDS011;18096;48.142;16.290;2023-04-25T10:23:23;1.10;;;1.00;;
14094;SDS011;18096;48.142;16.290;2023-04-25T10:25:52;1.40;;;1.30;;
14094;SDS011;18096;48.142;16.290;2023-04-25T10:28:19;0.70;;;0.70;;
14094;SDS011;18096;48.142;16.290;2023-04-25T10:33:32;1.00;;;0.70;;
14094;SDS011;18096;48.142;16.290;2023-04-25T10:35:58;0.80;;;0.77;;
14094;SDS011;18096;48.142;16.290;2023-04-25T10:38:33;1.20;;;0.80;;
14094;SDS011;18096;48.142;16.290;2023-04-25T10:41:02;1.10;;;0.60;;
14094;SDS011;18096;48.142;16.290;2023-04-25T10:46:15;0.70;;;0.70;;
14094;SDS011;18096;48.142;16.290;2023-04-25T10:48:57;0.70;;;0.70;;
14094;SDS011;18096;48.142;16.290;2023-04-25T10:56:21;4.10;;;1.40;;
14094;SDS011;18096;48.142;16.290;2023-04-25T10:58:47;1.00;;;1.00;;
14094;SDS011;18096;48.142;16.290;2023-04-25T11:01:14;1.02;;;1.02;;
14094;SDS011;18096;48.142;16.290;2023-04-25T11:03:46;1.45;;;1.35;;
14094;SDS011;18096;48.142;16.290;2023-04-25T11:09:10;1.40;;;1.20;;
14094;SDS011;18096;48.142;16.290;2023-04-25T11:11:39;1.92;;;1.40;;
14094;SDS011;18096;48.142;16.290;2023-04-25T11:14:05;1.80;;;1.70;;
14094;SDS011;18096;48.142;16.290;2023-04-25T11:16:31;1.80;;;1.70;;
14094;SDS011;18096;48.142;16.290;2023-04-25T11:18:57;5.47;;;2.13;;
14094;SDS011;18096;48.142;16.290;2023-04-25T11:21:23;2.33;;;1.80;;
14094;SDS011;18096;48.142;16.290;2023-04-25T11:23:53;2.22;;;1.67;;
14094;SDS011;18096;48.142;16.290;2023-04-25T11:26:19;3.85;;;2.10;;
14094;SDS011;18096;48.142;16.290;2023-04-25T11:28:45;1.80;;;1.70;;
14094;SDS011;18096;48.142;16.290;2023-04-25T11:31:12;5.38;;;2.00;;
14094;SDS011;18096;48.142;16.290;2023-04-25T11:33:37;2.72;;;2.53;;
14094;SDS011;18096;48.142;16.290;2023-04-25T11:36:05;3.00;;;2.57;;
14094;SDS011;18096;48.142;16.290;2023-04-25T11:38:31;2.33;;;1.97;;
14094;SDS011;18096;48.142;16.290;2023-04-25T11:40:57;2.07;;;1.80;;
14094;SDS011;18096;48.142;16.290;2023-04-25T11:43:23;2.00;;;1.63;;
14094;SDS011;18096;48.142;16.290;2023-04-25T11:45:50;5.40;;;2.40;;
14094;SDS011;18096;48.142;16.290;2023-04-25T11:48:16;1.70;;;1.60;;
14094;SDS011;18096;48.142;16.290;2023-04-25T11:50:43;1.50;;;1.40;;
14094;SDS011;18096;48.142;16.290;2023-04-25T11:53:08;5.50;;;1.63;;
14094;SDS011;18096;48.142;16.290;2023-04-25T11:55:35;3.90;;;1.30;;
14094;SDS011;18096;48.142;16.290;2023-04-25T11:58:01;4.60;;;1.45;;
14094;SDS011;18096;48.142;16.290;2023-04-25T12:00:28;3.05;;;1.63;;
14094;SDS011;18096;48.142;16.290;2023-04-25T12:02:55;3.65;;;2.20;;
14094;SDS011;18096;48.142;16.290;2023-04-25T12:05:26;1.83;;;1.73;;
14094;SDS011;18096;48.142;16.290;2023-04-25T12:07:53;1.88;;;1.77;;
14094;SDS011;18096;48.142;16.290;2023-04-25T12:10:19;2.72;;;1.60;;
14094;SDS011;18096;48.142;16.290;2023-04-25T12:12:46;3.50;;;1.70;;
14094;SDS011;18096;48.142;16.290;2023-04-25T12:15:16;1.50;;;1.40;;
14094;SDS011;18096;48.142;16.290;2023-04-25T12:17:46;4.20;;;1.80;;
14094;SDS011;18096;48.142;16.290;2023-04-25T12:20:17;1.83;;;1.70;;
14094;SDS011;18096;48.142;16.290;2023-04-25T12:22:51;2.45;;;2.35;;
14094;SDS011;18096;48.142;16.290;2023-04-25T12:33:23;1.60;;;1.50;;
14094;SDS011;18096;48.142;16.290;2023-04-25T12:35:49;2.30;;;1.33;;
14094;SDS011;18096;48.142;16.290;2023-04-25T12:38:25;1.17;;;1.07;;
14094;SDS011;18096;48.142;16.290;2023-04-25T12:40:52;1.30;;;1.30;;
14094;SDS011;18096;48.142;16.290;2023-04-25T12:43:18;1.20;;;1.10;;
14094;SDS011;18096;48.142;16.290;2023-04-25T12:45:44;1.40;;;1.30;;
14094;SDS011;18096;48.142;16.290;2023-04-25T12:48:15;0.90;;;0.90;;
14094;SDS011;18096;48.142;16.290;2023-04-25T12:50:42;0.90;;;0.90;;
14094;SDS011;18096;48.142;16.290;2023-04-25T12:53:08;1.00;;;1.00;;
14094;SDS011;18096;48.142;16.290;2023-04-25T12:55:34;1.90;;;1.00;;
14094;SDS011;18096;48.142;16.290;2023-04-25T12:58:00;0.80;;;0.80;;
14094;SDS011;18096;48.142;16.290;2023-04-25T13:00:26;2.10;;;0.90;;
14094;SDS011;18096;48.142;16.290;2023-04-25T13:02:51;0.80;;;0.80;;
14094;SDS011;18096;48.142;16.290;2023-04-25T13:05:17;1.90;;;0.75;;
14094;SDS011;18096;48.142;16.290;2023-04-25T13:07:43;1.13;;;1.00;;
14094;SDS011;18096;48.142;16.290;2023-04-25T13:10:08;1.20;;;0.80;;
14094;SDS011;18096;48.142;16.290;2023-04-25T13:12:34;0.85;;;0.80;;
14094;SDS011;18096;48.142;16.290;2023-04-25T13:15:00;0.70;;;0.70;;
14094;SDS011;18096;48.142;16.290;2023-04-25T13:17:25;0.63;;;0.63;;
14094;SDS011;18096;48.142;16.290;2023-04-25T13:19:51;0.60;;;0.60;;
14094;SDS011;18096;48.142;16.290;2023-04-25T13:22:16;0.60;;;0.60;;
14094;SDS011;18096;48.142;16.290;2023-04-25T13:24:45;1.17;;;0.65;;
14094;SDS011;18096;48.142;16.290;2023-04-25T13:27:11;0.80;;;0.70;;
14094;SDS011;18096;48.142;16.290;2023-04-25T13:29:36;0.70;;;0.70;;
14094;SDS011;18096;48.142;16.290;2023-04-25T13:32:03;3.00;;;0.90;;
14094;SDS011;18096;48.142;16.290;2023-04-25T13:34:30;0.70;;;0.70;;
14094;SDS011;18096;48.142;16.290;2023-04-25T13:36:55;3.40;;;0.70;;
14094;SDS011;18096;48.142;16.290;2023-04-25T13:39:21;1.15;;;0.93;;
14094;SDS011;18096;48.142;16.290;2023-04-25T13:41:47;1.38;;;1.27;;
14094;SDS011;18096;48.142;16.290;2023-04-25T13:44:12;2.20;;;2.00;;
14094;SDS011;18096;48.142;16.290;2023-04-25T13:46:38;1.50;;;1.40;;
14094;SDS011;18096;48.142;16.290;2023-04-25T13:49:04;2.00;;;1.27;;
14094;SDS011;18096;48.142;16.290;2023-04-25T13:51:29;12.35;;;3.58;;
14094;SDS011;18096;48.142;16.290;2023-04-25T13:53:56;7.50;;;4.50;;
14094;SDS011;18096;48.142;16.290;2023-04-25T13:56:21;18.63;;;3.50;;
14094;SDS011;18096;48.142;16.290;2023-04-25T13:58:48;1.45;;;1.35;;
14094;SDS011;18096;48.142;16.290;2023-04-25T14:01:17;0.70;;;0.70;;
14094;SDS011;18096;48.142;16.290;2023-04-25T14:03:43;1.40;;;1.00;;
14094;SDS011;18096;48.142;16.290;2023-04-25T14:06:10;0.80;;;0.80;;
14094;SDS011;18096;48.142;16.290;2023-04-25T14:09:05;2.88;;;1.17;;
14094;SDS011;18096;48.142;16.290;2023-04-25T14:11:32;1.00;;;0.70;;
14094;SDS011;18096;48.142;16.290;2023-04-25T14:13:57;0.80;;;0.60;;
14094;SDS011;18096;48.142;16.290;2023-04-25T14:16:23;0.60;;;0.60;;
14094;SDS011;18096;48.142;16.290;2023-04-25T14:18:48;0.53;;;0.53;;
14094;SDS011;18096;48.142;16.290;2023-04-25T14:21:14;0.60;;;0.60;;
14094;SDS011;18096;48.142;16.290;2023-04-25T14:23:40;1.30;;;0.90;;
14094;SDS011;18096;48.142;16.290;2023-04-25T14:26:05;1.20;;;0.90;;
14094;SDS011;18096;48.142;16.290;2023-04-25T14:28:31;1.10;;;1.10;;
14094;SDS011;18096;48.142;16.290;2023-04-25T14:30:57;1.20;;;1.10;;
14094;SDS011;18096;48.142;16.290;2023-04-25T14:33:22;1.60;;;0.70;;
14094;SDS011;18096;48.142;16.290;2023-04-25T14:35:48;0.90;;;0.90;;
14094;SDS011;18096;48.142;16.290;2023-04-25T14:38:14;2.57;;;1.80;;
14094;SDS011;18096;48.142;16.290;2023-04-25T14:40:40;1.60;;;1.30;;
14094;SDS011;18096;48.142;16.290;2023-04-25T14:43:05;1.73;;;1.10;;
14094;SDS011;18096;48.142;16.290;2023-04-25T14:45:31;0.73;;;0.63;;
14094;SDS011;18096;48.142;16.290;2023-04-25T14:47:56;1.00;;;0.70;;
14094;SDS011;18096;48.142;16.290;2023-04-25T14:50:22;0.80;;;0.80;;
14094;SDS011;18096;48.142;16.290;2023-04-25T14:52:48;0.70;;;0.70;;
14094;SDS011;18096;48.142;16.290;2023-04-25T14:55:13;1.03;;;0.70;;
14094;SDS011;18096;48.142;16.290;2023-04-25T14:57:39;0.80;;;0.63;;